Time;durP1;ratioP1;P1;durP2;ratioP2;P2;SDS_P1;SDS_P2;PMS_P1;PMS_P2;Temp;Humidity;BMP_temperature;BMP_pressure;BME280_temperature;BME280_humidity;BME280_pressure;Samples;Min_cycle;Max_cycle;Signal;HPM_P1;HPM_P2
2023/03/20 00:00:56;;;;;;;33.40;22.00;;;9.70;99.90;;;;;;5045531;28;20412;-62
2023/03/20 00:03:25;;;;;;;34.58;22.05;;;9.70;99.90;;;;;;5043113;28;20419;-61
2023/03/20 00:05:52;;;;;;;31.70;21.75;;;9.60;99.90;;;;;;5041457;28;20520;-62
2023/03/20 00:08:18;;;;;;;32.85;21.83;;;9.60;99.90;;;;;;5049964;28;20406;-62
2023/03/20 00:10:46;;;;;;;33.08;22.25;;;9.40;99.90;;;;;;5043152;28;20419;-63
2023/03/20 00:13:19;;;;;;;30.80;21.60;;;9.30;99.90;;;;;;5043626;28;20481;-62
2023/03/20 00:15:46;;;;;;;32.92;22.83;;;9.40;99.90;;;;;;5044298;28;21148;-63
2023/03/20 00:18:17;;;;;;;31.80;22.75;;;9.40;99.90;;;;;;5043463;28;20415;-63
2023/03/20 00:20:45;;;;;;;29.63;21.40;;;9.40;99.90;;;;;;5034809;28;20415;-62
2023/03/20 00:23:13;;;;;;;32.78;22.83;;;9.50;99.90;;;;;;5036406;28;20504;-63
2023/03/20 00:25:42;;;;;;;33.73;23.63;;;9.50;99.90;;;;;;5048293;28;20467;-62
2023/03/20 00:28:31;;;;;;;36.25;24.73;;;9.50;99.90;;;;;;5052798;28;20756;-62
2023/03/20 00:30:58;;;;;;;38.28;26.67;;;9.50;99.90;;;;;;5042389;28;20422;-62
2023/03/20 00:33:25;;;;;;;39.42;27.30;;;9.40;99.90;;;;;;5043443;28;20414;-62
2023/03/20 00:35:53;;;;;;;39.28;26.27;;;9.40;99.90;;;;;;5042841;28;20437;-62
2023/03/20 00:38:20;;;;;;;35.80;25.65;;;9.40;99.90;;;;;;5042983;28;20423;-62
2023/03/20 00:40:47;;;;;;;36.53;24.80;;;9.30;99.90;;;;;;5042686;28;20418;-63
2023/03/20 00:43:14;;;;;;;36.05;24.35;;;9.30;99.90;;;;;;5041968;28;20433;-63
2023/03/20 00:45:45;;;;;;;32.65;22.42;;;9.30;99.90;;;;;;5039838;28;20533;-63
2023/03/20 00:48:14;;;;;;;32.22;21.30;;;9.30;99.90;;;;;;5041598;28;20506;-63
2023/03/20 00:50:41;;;;;;;28.33;19.95;;;9.20;99.90;;;;;;5043742;28;20761;-62
2023/03/20 00:53:11;;;;;;;26.90;18.97;;;9.00;99.90;;;;;;5044329;28;20485;-63
2023/03/20 00:55:39;;;;;;;26.90;19.20;;;9.10;99.90;;;;;;5053587;28;20822;-63
2023/03/20 00:58:06;;;;;;;28.25;19.48;;;9.10;99.90;;;;;;5045381;28;20449;-63
2023/03/20 01:00:38;;;;;;;24.77;18.05;;;9.10;99.90;;;;;;5041280;28;20492;-63
2023/03/20 01:03:12;;;;;;;27.20;18.27;;;9.20;99.90;;;;;;5041798;28;20465;-63
2023/03/20 01:05:39;;;;;;;26.10;18.80;;;9.30;99.90;;;;;;5032886;28;20442;-63
2023/03/20 01:08:15;;;;;;;27.52;19.60;;;9.30;99.90;;;;;;5032702;28;20422;-63
2023/03/20 01:10:42;;;;;;;29.92;19.17;;;9.20;99.90;;;;;;5042485;28;20902;-62
2023/03/20 01:13:17;;;;;;;28.70;20.05;;;9.20;99.90;;;;;;5041328;28;20461;-63
2023/03/20 01:15:44;;;;;;;28.60;19.38;;;9.10;99.90;;;;;;5041796;28;20935;-63
2023/03/20 01:18:13;;;;;;;26.75;18.25;;;9.10;99.90;;;;;;5040894;28;20949;-63
2023/03/20 01:20:40;;;;;;;27.23;18.20;;;9.10;99.90;;;;;;5042331;28;20503;-63
2023/03/20 01:23:07;;;;;;;28.95;19.60;;;9.10;99.90;;;;;;5043502;28;20409;-63
2023/03/20 01:25:35;;;;;;;28.38;19.75;;;9.10;99.90;;;;;;5053218;28;20415;-63
2023/03/20 01:28:03;;;;;;;28.45;18.90;;;9.00;99.90;;;;;;5041155;28;20836;-63
2023/03/20 01:30:31;;;;;;;26.40;18.38;;;9.10;99.90;;;;;;5041091;28;20461;-63
2023/03/20 01:32:59;;;;;;;24.77;17.98;;;9.00;99.90;;;;;;5041623;28;20829;-62
2023/03/20 01:35:29;;;;;;;24.95;16.52;;;9.00;99.90;;;;;;5040976;28;20414;-63
2023/03/20 01:37:56;;;;;;;23.50;16.73;;;8.90;99.90;;;;;;5041593;28;20840;-63
2023/03/20 01:40:38;;;;;;;23.92;15.82;;;8.90;99.90;;;;;;5042971;28;20457;-63
2023/03/20 01:43:13;;;;;;;27.47;17.40;;;8.90;99.90;;;;;;5043180;28;20413;-63
2023/03/20 01:45:48;;;;;;;26.38;18.55;;;8.90;99.90;;;;;;5042626;28;20512;-62
2023/03/20 01:48:18;;;;;;;27.67;19.42;;;8.80;99.90;;;;;;5041692;28;20460;-63
2023/03/20 01:50:45;;;;;;;28.58;19.13;;;8.80;99.90;;;;;;5040469;28;20403;-62
2023/03/20 01:53:15;;;;;;;25.13;17.23;;;8.80;99.90;;;;;;5044045;28;20909;-63
2023/03/20 01:55:45;;;;;;;25.83;17.02;;;8.80;99.90;;;;;;5045456;28;20737;-63
2023/03/20 01:58:17;;;;;;;23.17;16.33;;;8.80;99.90;;;;;;5042378;28;20466;-62
2023/03/20 02:00:43;;;;;;;24.15;16.33;;;8.70;99.90;;;;;;5042669;28;20980;-63
2023/03/20 02:03:10;;;;;;;23.10;16.15;;;8.70;99.90;;;;;;5041303;28;20513;-63
2023/03/20 02:05:39;;;;;;;24.00;15.35;;;8.70;99.90;;;;;;5044223;28;20417;-63
2023/03/20 02:08:24;;;;;;;22.42;14.98;;;8.70;99.90;;;;;;5031303;28;20467;-62
2023/03/20 02:10:53;;;;;;;22.95;15.68;;;8.60;99.90;;;;;;5040390;28;20414;-63
2023/03/20 02:13:20;;;;;;;20.83;14.55;;;8.60;99.90;;;;;;5040505;28;20438;-63
2023/03/20 02:15:57;;;;;;;21.95;15.15;;;8.60;99.90;;;;;;5040921;28;20834;-63
2023/03/20 02:18:25;;;;;;;20.92;14.95;;;8.50;99.90;;;;;;5047781;28;20469;-63
2023/03/20 02:21:30;;;;;;;22.37;14.63;;;8.60;99.90;;;;;;5042032;28;20436;-63
2023/03/20 02:24:42;;;;;;;21.73;15.30;;;8.50;99.90;;;;;;5046539;28;20410;-63
2023/03/20 02:27:19;;;;;;;19.65;13.38;;;8.60;99.90;;;;;;5005626;28;20417;-63
2023/03/20 02:30:24;;;;;;;18.50;13.00;;;8.70;99.90;;;;;;5036056;28;20512;-62
2023/03/20 02:33:22;;;;;;;18.98;13.07;;;8.70;99.90;;;;;;5022765;28;20479;-63
2023/03/20 02:36:14;;;;;;;19.73;12.43;;;8.70;99.90;;;;;;5041166;28;20421;-63
2023/03/20 02:39:02;;;;;;;18.77;12.55;;;8.70;99.90;;;;;;5043065;28;20409;-63
2023/03/20 02:41:33;;;;;;;18.33;11.98;;;8.70;99.90;;;;;;5043117;28;20470;-63
2023/03/20 02:44:05;;;;;;;16.48;11.35;;;8.70;99.90;;;;;;5038992;28;20772;-63
2023/03/20 02:46:41;;;;;;;17.10;11.43;;;8.60;99.90;;;;;;5041994;28;20467;-63
2023/03/20 02:49:18;;;;;;;14.67;10.93;;;8.60;99.90;;;;;;5041786;28;20440;-62
2023/03/20 02:51:50;;;;;;;15.50;10.55;;;8.60;99.90;;;;;;5040714;28;20463;-63
2023/03/20 02:54:28;;;;;;;15.35;10.93;;;8.50;99.90;;;;;;5043566;28;20430;-63
2023/03/20 02:57:03;;;;;;;16.63;11.88;;;8.40;99.90;;;;;;5048795;28;20416;-63
2023/03/20 02:59:35;;;;;;;14.68;10.52;;;8.30;99.90;;;;;;5041260;28;20425;-62
2023/03/20 03:02:06;;;;;;;13.63;10.13;;;8.40;99.90;;;;;;5031592;28;20422;-62
2023/03/20 03:04:36;;;;;;;14.30;10.50;;;8.40;99.90;;;;;;5031682;28;20501;-63
2023/03/20 03:07:05;;;;;;;14.98;9.52;;;8.30;99.90;;;;;;5041815;28;20405;-63
2023/03/20 03:09:38;;;;;;;14.87;10.57;;;8.30;99.90;;;;;;5041682;28;20420;-63
2023/03/20 03:12:10;;;;;;;13.98;9.55;;;8.40;99.90;;;;;;5039905;28;20406;-63
2023/03/20 03:14:39;;;;;;;14.32;9.60;;;8.40;99.90;;;;;;5039336;28;20433;-63
2023/03/20 03:17:08;;;;;;;13.32;9.60;;;8.30;99.90;;;;;;5040635;28;20815;-62
2023/03/20 03:19:37;;;;;;;14.20;9.60;;;8.30;99.90;;;;;;5041536;28;20911;-63
2023/03/20 03:22:05;;;;;;;13.18;9.32;;;8.40;99.90;;;;;;5040279;28;20797;-63
2023/03/20 03:24:35;;;;;;;15.07;9.32;;;8.40;99.90;;;;;;5051290;28;20414;-63
2023/03/20 03:27:07;;;;;;;13.98;9.27;;;8.50;99.90;;;;;;5046330;28;20899;-63
2023/03/20 03:29:36;;;;;;;14.18;9.90;;;8.50;99.90;;;;;;5039156;28;20411;-62
2023/03/20 03:32:06;;;;;;;14.43;10.05;;;8.40;99.90;;;;;;5039740;28;20418;-63
2023/03/20 03:34:34;;;;;;;14.18;9.93;;;8.30;99.90;;;;;;5045265;28;20819;-62
2023/03/20 03:37:07;;;;;;;15.82;10.05;;;8.30;99.90;;;;;;5042552;28;20423;-62
2023/03/20 03:39:41;;;;;;;14.77;9.48;;;8.30;99.90;;;;;;5044570;28;20941;-63
2023/03/20 03:42:16;;;;;;;14.95;10.35;;;8.30;99.90;;;;;;5041017;28;20794;-63
2023/03/20 03:44:53;;;;;;;16.80;10.48;;;8.20;99.90;;;;;;5039727;28;20407;-63
2023/03/20 03:47:24;;;;;;;16.70;11.20;;;8.00;99.90;;;;;;5030226;28;20466;-63
2023/03/20 03:50:00;;;;;;;18.35;11.60;;;8.00;99.90;;;;;;5030181;28;20428;-63
2023/03/20 03:52:30;;;;;;;17.75;12.43;;;7.90;99.90;;;;;;5036357;28;21132;-63
2023/03/20 03:55:02;;;;;;;17.63;12.55;;;7.80;99.90;;;;;;5051400;28;20466;-63
2023/03/20 03:57:34;;;;;;;17.75;12.32;;;7.70;99.90;;;;;;5042384;28;20476;-63
2023/03/20 04:00:05;;;;;;;19.35;12.32;;;7.70;99.90;;;;;;5030282;28;20454;-63
2023/03/20 04:02:33;;;;;;;19.52;12.48;;;7.70;99.90;;;;;;5030229;28;20458;-62
2023/03/20 04:05:03;;;;;;;16.58;12.02;;;7.60;99.90;;;;;;5032655;28;20469;-63
2023/03/20 04:07:30;;;;;;;18.83;12.98;;;7.70;99.90;;;;;;5033794;28;20465;-62
2023/03/20 04:09:58;;;;;;;17.90;12.63;;;7.70;99.90;;;;;;5041235;28;20898;-63
2023/03/20 04:12:34;;;;;;;17.25;12.20;;;7.80;99.90;;;;;;5043928;28;20568;-63
2023/03/20 04:15:01;;;;;;;18.48;11.85;;;7.90;99.90;;;;;;5033695;28;20410;-63
2023/03/20 04:17:28;;;;;;;18.85;12.85;;;7.90;99.90;;;;;;5033377;28;20951;-63
2023/03/20 04:19:55;;;;;;;19.33;13.48;;;7.80;99.90;;;;;;5033855;28;20427;-63
2023/03/20 04:22:22;;;;;;;19.95;12.90;;;7.80;99.90;;;;;;5033712;28;20423;-63
2023/03/20 04:24:50;;;;;;;19.40;13.13;;;7.80;99.90;;;;;;5050880;28;20826;-63
2023/03/20 04:27:18;;;;;;;21.10;14.30;;;7.90;99.90;;;;;;5043153;28;20792;-63
2023/03/20 04:29:44;;;;;;;20.98;13.82;;;7.90;99.90;;;;;;5042578;28;20875;-62
2023/03/20 04:32:11;;;;;;;20.58;13.32;;;7.80;99.90;;;;;;5044449;28;20420;-63
2023/03/20 04:34:38;;;;;;;22.90;15.43;;;7.80;99.90;;;;;;5043536;28;20477;-63
2023/03/20 04:37:07;;;;;;;22.77;15.00;;;7.70;99.90;;;;;;5042022;28;20415;-63
2023/03/20 04:39:33;;;;;;;23.05;15.88;;;7.70;99.90;;;;;;5043687;28;20417;-63
2023/03/20 04:42:00;;;;;;;22.37;15.73;;;7.60;99.90;;;;;;5040521;28;20551;-62
2023/03/20 04:44:28;;;;;;;23.67;16.17;;;7.60;99.90;;;;;;5042202;28;20469;-63
2023/03/20 04:46:55;;;;;;;23.13;15.53;;;7.60;99.90;;;;;;5042174;28;20524;-62
2023/03/20 04:49:21;;;;;;;24.00;15.90;;;7.60;99.90;;;;;;5044368;28;20463;-63
2023/03/20 04:51:48;;;;;;;23.92;15.75;;;7.70;99.90;;;;;;5043032;28;20411;-65
2023/03/20 04:54:15;;;;;;;23.20;15.40;;;7.70;99.90;;;;;;5047018;28;20418;-62
2023/03/20 04:56:42;;;;;;;24.95;16.00;;;7.70;99.90;;;;;;5040954;28;20878;-62
2023/03/20 04:59:08;;;;;;;23.25;15.20;;;7.80;99.90;;;;;;5045193;28;20484;-62
2023/03/20 05:01:36;;;;;;;25.75;15.40;;;7.60;99.90;;;;;;5044709;28;20427;-62
2023/03/20 05:04:03;;;;;;;24.30;16.07;;;7.60;99.90;;;;;;5039398;28;20415;-62
2023/03/20 05:06:31;;;;;;;22.83;15.75;;;7.60;99.90;;;;;;5043588;28;20757;-62
2023/03/20 05:08:59;;;;;;;25.60;16.40;;;7.50;99.90;;;;;;5042341;28;20499;-62
2023/03/20 05:11:26;;;;;;;27.05;17.13;;;7.50;99.90;;;;;;5041612;28;20415;-62
2023/03/20 05:13:53;;;;;;;27.13;17.60;;;7.40;99.90;;;;;;5032809;28;20434;-63
2023/03/20 05:16:20;;;;;;;27.85;17.88;;;7.30;99.90;;;;;;5031788;28;20801;-63
2023/03/20 05:18:49;;;;;;;25.33;16.92;;;7.20;99.90;;;;;;5032765;28;20993;-62
2023/03/20 05:21:16;;;;;;;28.10;17.95;;;7.30;99.90;;;;;;5032171;28;20521;-62
2023/03/20 05:23:42;;;;;;;26.90;17.83;;;7.30;99.90;;;;;;5040935;28;20422;-61
2023/03/20 05:26:09;;;;;;;24.48;16.60;;;7.30;99.90;;;;;;5051669;28;20417;-62
2023/03/20 05:28:37;;;;;;;25.73;17.13;;;7.30;99.90;;;;;;5042913;28;20894;-62
2023/03/20 05:31:04;;;;;;;26.92;17.05;;;7.30;99.90;;;;;;5041000;28;20419;-62
2023/03/20 05:33:31;;;;;;;26.83;17.33;;;7.30;99.90;;;;;;5042208;28;20417;-62
2023/03/20 05:35:59;;;;;;;22.27;15.85;;;7.30;99.90;;;;;;5043289;28;20409;-62
2023/03/20 05:38:26;;;;;;;28.08;16.55;;;7.40;99.90;;;;;;5041796;28;20504;-62
2023/03/20 05:40:57;;;;;;;26.90;16.70;;;7.30;99.90;;;;;;5041310;28;20910;-62
2023/03/20 05:43:24;;;;;;;25.42;16.95;;;7.40;99.90;;;;;;5032122;28;20407;-61
2023/03/20 05:45:51;;;;;;;26.52;16.88;;;7.40;99.90;;;;;;5031711;28;20469;-62
2023/03/20 05:48:17;;;;;;;26.63;17.05;;;7.30;99.90;;;;;;5031860;28;20473;-62
2023/03/20 05:50:44;;;;;;;26.55;17.13;;;7.40;99.90;;;;;;5031566;28;20411;-62
2023/03/20 05:53:12;;;;;;;25.67;16.57;;;7.30;99.90;;;;;;5035694;28;20476;-61
2023/03/20 05:55:40;;;;;;;25.85;16.75;;;7.40;99.90;;;;;;5046042;28;20408;-61
2023/03/20 05:58:07;;;;;;;27.13;16.03;;;7.30;99.90;;;;;;5040874;28;20415;-62
2023/03/20 06:00:34;;;;;;;24.80;16.70;;;7.20;99.90;;;;;;5042697;28;20427;-61
2023/03/20 06:03:00;;;;;;;26.55;16.95;;;7.20;99.90;;;;;;5042421;28;20828;-62
2023/03/20 06:05:27;;;;;;;25.10;16.50;;;7.20;99.90;;;;;;5043199;28;20834;-61
2023/03/20 06:07:54;;;;;;;25.90;16.07;;;7.30;99.90;;;;;;5041745;28;20561;-61
2023/03/20 06:10:22;;;;;;;23.73;15.57;;;7.20;99.90;;;;;;5044491;28;20459;-62
2023/03/20 06:12:48;;;;;;;27.75;16.63;;;7.20;99.90;;;;;;5040439;28;20441;-62
2023/03/20 06:15:15;;;;;;;27.10;16.48;;;7.10;99.90;;;;;;5041510;28;20414;-62
2023/03/20 06:17:42;;;;;;;23.45;15.07;;;7.20;99.90;;;;;;5042698;28;20423;-62
2023/03/20 06:20:10;;;;;;;28.08;16.00;;;7.20;99.90;;;;;;5042361;28;20417;-62
2023/03/20 06:22:37;;;;;;;24.70;15.20;;;7.20;99.90;;;;;;5042721;28;20780;-62
2023/03/20 06:25:03;;;;;;;23.60;15.60;;;7.20;99.90;;;;;;5051535;28;20417;-62
2023/03/20 06:27:31;;;;;;;25.10;15.65;;;7.10;99.90;;;;;;5042221;28;20887;-61
2023/03/20 06:29:58;;;;;;;22.05;15.23;;;7.20;99.90;;;;;;5039980;28;20464;-62
2023/03/20 06:32:25;;;;;;;21.67;14.60;;;7.30;99.90;;;;;;5043636;28;20422;-61
2023/03/20 06:34:52;;;;;;;20.80;14.18;;;7.30;99.90;;;;;;5039707;28;20422;-61
2023/03/20 06:37:19;;;;;;;20.88;13.80;;;7.30;99.90;;;;;;5041826;28;20757;-62
2023/03/20 06:39:46;;;;;;;23.02;14.30;;;7.20;99.90;;;;;;5042180;28;20851;-62
2023/03/20 06:42:12;;;;;;;20.02;14.00;;;7.00;99.90;;;;;;5040120;28;20431;-62
2023/03/20 06:44:41;;;;;;;19.50;14.00;;;7.10;99.90;;;;;;5041137;28;20447;-62
2023/03/20 06:47:08;;;;;;;20.95;13.55;;;7.30;99.90;;;;;;5041996;28;20418;-62
2023/03/20 06:49:35;;;;;;;20.48;13.50;;;7.20;99.90;;;;;;5040902;28;20481;-62
2023/03/20 06:52:01;;;;;;;18.65;13.38;;;7.30;99.90;;;;;;5041020;28;20413;-60
2023/03/20 06:54:28;;;;;;;20.13;13.52;;;7.30;99.90;;;;;;5047699;28;20415;-62
2023/03/20 06:56:55;;;;;;;18.55;12.63;;;7.30;99.90;;;;;;5041919;28;20420;-61
2023/03/20 06:59:22;;;;;;;19.70;12.18;;;7.40;99.90;;;;;;5043221;28;20419;-63
2023/03/20 07:01:51;;;;;;;19.20;12.50;;;7.50;99.90;;;;;;5042001;28;20432;-62
2023/03/20 07:04:18;;;;;;;19.67;12.38;;;7.50;99.90;;;;;;5042423;28;20452;-63
2023/03/20 07:06:47;;;;;;;20.73;12.50;;;7.60;99.90;;;;;;5038454;28;20414;-62
2023/03/20 07:09:13;;;;;;;17.92;11.68;;;7.60;99.90;;;;;;5043159;28;20422;-63
2023/03/20 07:11:40;;;;;;;19.08;12.20;;;7.60;99.90;;;;;;5042410;28;20422;-62
2023/03/20 07:14:07;;;;;;;16.67;11.68;;;7.50;99.90;;;;;;5041552;28;20960;-62
2023/03/20 07:16:33;;;;;;;18.08;11.40;;;7.50;99.90;;;;;;5039057;28;20882;-62
2023/03/20 07:19:02;;;;;;;17.05;11.70;;;7.60;99.90;;;;;;5042937;28;20440;-62
2023/03/20 07:21:30;;;;;;;16.47;11.47;;;7.70;99.90;;;;;;5040512;28;20973;-63
2023/03/20 07:23:57;;;;;;;18.20;12.23;;;7.80;99.90;;;;;;5044325;28;20783;-63
2023/03/20 07:26:24;;;;;;;15.50;10.60;;;7.90;99.90;;;;;;5045150;28;20423;-63
2023/03/20 07:28:51;;;;;;;15.53;10.67;;;7.90;99.90;;;;;;5041640;28;20422;-63
2023/03/20 07:31:22;;;;;;;16.98;10.68;;;8.00;99.90;;;;;;5039876;28;20873;-62
2023/03/20 07:33:49;;;;;;;16.70;10.77;;;8.00;99.90;;;;;;5038852;28;20426;-63
2023/03/20 07:36:17;;;;;;;16.35;10.50;;;8.00;99.90;;;;;;5040843;28;20479;-62
2023/03/20 07:38:44;;;;;;;15.40;10.52;;;8.10;99.90;;;;;;5042173;28;20466;-63
2023/03/20 07:41:11;;;;;;;13.70;9.27;;;8.30;99.90;;;;;;5043298;28;20489;-63
2023/03/20 07:43:37;;;;;;;17.15;10.32;;;8.30;96.60;;;;;;5043696;28;20472;-63
2023/03/20 07:46:05;;;;;;;15.43;9.88;;;8.20;80.40;;;;;;5045500;28;20417;-63
2023/03/20 07:48:32;;;;;;;15.30;9.43;;;8.30;95.70;;;;;;5044201;28;20422;-63
2023/03/20 07:50:59;;;;;;;14.48;9.80;;;8.30;92.80;;;;;;5043121;28;20407;-62
2023/03/20 07:53:28;;;;;;;15.35;9.20;;;8.30;84.60;;;;;;5047793;28;20411;-62
2023/03/20 07:55:54;;;;;;;13.85;8.80;;;8.40;81.80;;;;;;5054184;28;20412;-63
2023/03/20 07:58:21;;;;;;;13.67;8.67;;;8.40;61.90;;;;;;5046146;28;20413;-63
2023/03/20 08:00:48;;;;;;;14.52;8.43;;;8.40;61.60;;;;;;5043949;28;20423;-63
2023/03/20 08:03:15;;;;;;;14.40;9.05;;;8.50;50.70;;;;;;5042910;28;20460;-63
2023/03/20 08:05:41;;;;;;;15.30;9.18;;;8.40;63.00;;;;;;5044803;28;20459;-63
2023/03/20 08:08:08;;;;;;;14.07;8.65;;;8.50;85.10;;;;;;5044458;28;20409;-63
2023/03/20 08:10:36;;;;;;;12.73;8.23;;;8.60;46.90;;;;;;5042381;28;20415;-63
2023/03/20 08:13:03;;;;;;;12.68;8.68;;;8.60;35.00;;;;;;5042726;28;20901;-63
2023/03/20 08:15:29;;;;;;;14.30;8.77;;;8.50;46.10;;;;;;5046050;28;20527;-63
2023/03/20 08:17:57;;;;;;;14.73;8.70;;;8.70;53.30;;;;;;5043135;28;20418;-63
2023/03/20 08:20:25;;;;;;;13.80;8.50;;;8.80;63.10;;;;;;5043055;28;20481;-62
2023/03/20 08:22:52;;;;;;;12.30;8.10;;;8.80;31.90;;;;;;5043339;28;20431;-62
2023/03/20 08:25:18;;;;;;;12.43;7.85;;;9.00;31.70;;;;;;5055565;28;20435;-61
2023/03/20 08:27:46;;;;;;;12.88;7.60;;;9.10;10.20;;;;;;5046209;28;20953;-62
2023/03/20 08:30:14;;;;;;;12.43;7.97;;;9.10;1.00;;;;;;5043634;28;20415;-62
2023/03/20 08:32:41;;;;;;;13.48;7.75;;;9.30;1.00;;;;;;5041994;28;20419;-62
2023/03/20 08:35:08;;;;;;;14.93;9.07;;;9.30;1.00;;;;;;5044156;28;20413;-62
2023/03/20 08:37:36;;;;;;;15.50;8.80;;;9.20;1.00;;;;;;5043635;28;20749;-62
2023/03/20 08:40:04;;;;;;;16.17;8.25;;;9.30;1.00;;;;;;5042358;28;20422;-61
2023/03/20 08:42:31;;;;;;;14.32;8.43;;;9.30;1.00;;;;;;5042874;28;20513;-62
2023/03/20 08:45:00;;;;;;;12.48;8.50;;;9.30;1.00;;;;;;5044592;28;20412;-64
2023/03/20 08:47:26;;;;;;;13.73;7.97;;;9.40;1.00;;;;;;5043190;28;20472;-62
2023/03/20 08:49:53;;;;;;;13.55;7.95;;;9.50;1.00;;;;;;5043162;28;20415;-62
2023/03/20 08:52:19;;;;;;;11.27;7.65;;;9.40;1.00;;;;;;5045940;28;20417;-62
2023/03/20 08:54:46;;;;;;;11.38;7.15;;;9.50;1.00;;;;;;5052632;28;20498;-62
2023/03/20 08:57:13;;;;;;;11.02;7.32;;;9.50;1.00;;;;;;5043347;28;20496;-62
2023/03/20 08:59:40;;;;;;;11.20;7.30;;;9.60;1.00;;;;;;5043142;28;20421;-62
2023/03/20 09:02:10;;;;;;;11.93;7.30;;;9.60;99.90;;;;;;5043989;28;20459;-62
2023/03/20 09:04:37;;;;;;;13.80;7.43;;;9.50;1.00;;;;;;5032746;28;20497;-62
2023/03/20 09:07:04;;;;;;;13.23;6.75;;;9.60;1.00;;;;;;5032686;28;20407;-62
2023/03/20 09:09:31;;;;;;;11.27;6.32;;;9.70;99.90;;;;;;5032763;28;20889;-62
2023/03/20 09:11:58;;;;;;;10.40;6.32;;;9.60;99.90;;;;;;5032949;28;20920;-62
2023/03/20 09:14:26;;;;;;;11.00;6.25;;;9.70;99.90;;;;;;5033273;28;20473;-62
2023/03/20 09:16:54;;;;;;;11.35;6.10;;;9.70;1.00;;;;;;5042332;28;20475;-62
2023/03/20 09:19:22;;;;;;;12.50;6.28;;;9.50;99.90;;;;;;5043607;28;20505;-62
2023/03/20 09:21:48;;;;;;;11.43;6.35;;;9.50;1.00;;;;;;5041731;28;20423;-62
2023/03/20 09:24:15;;;;;;;11.60;6.35;;;9.60;32.50;;;;;;5047502;28;20422;-62
2023/03/20 09:26:42;;;;;;;10.65;6.53;;;9.30;99.90;;;;;;5043980;28;20436;-62
2023/03/20 09:29:08;;;;;;;12.40;6.38;;;9.40;1.00;;;;;;5042648;28;20824;-62
2023/03/20 09:31:35;;;;;;;12.35;6.85;;;9.30;1.00;;;;;;5041018;28;20415;-62
2023/03/20 09:34:02;;;;;;;11.05;6.13;;;9.40;99.90;;;;;;5042933;28;20421;-62
2023/03/20 09:36:30;;;;;;;12.20;6.43;;;9.40;1.00;;;;;;5042617;28;20459;-62
2023/03/20 09:38:57;;;;;;;10.80;6.50;;;9.50;99.90;;;;;;5041106;28;20445;-62
2023/03/20 09:41:26;;;;;;;12.43;7.28;;;9.40;99.90;;;;;;5041912;28;20425;-62
2023/03/20 09:44:02;;;;;;;14.55;6.70;;;9.40;99.90;;;;;;5044054;28;20423;-62
2023/03/20 09:46:48;;;;;;;11.68;6.63;;;9.50;1.00;;;;;;5040661;28;20900;-62
2023/03/20 09:49:26;;;;;;;13.33;7.00;;;9.40;1.00;;;;;;5043477;28;20504;-62
2023/03/20 09:51:57;;;;;;;11.93;6.30;;;9.40;99.90;;;;;;5032103;28;20415;-62
2023/03/20 09:54:28;;;;;;;12.02;6.28;;;9.60;99.90;;;;;;5045459;28;20481;-62
2023/03/20 09:56:57;;;;;;;14.00;6.43;;;9.50;1.00;;;;;;5047048;28;20431;-62
2023/03/20 09:59:26;;;;;;;11.23;5.95;;;9.60;1.00;;;;;;5040988;28;20801;-62
2023/03/20 10:01:55;;;;;;;10.43;5.93;;;9.70;1.00;;;;;;5040553;28;20433;-62
2023/03/20 10:04:25;;;;;;;10.23;5.50;;;9.70;99.90;;;;;;5040472;28;20473;-62
2023/03/20 10:06:52;;;;;;;8.35;5.35;;;9.80;1.00;;;;;;5043765;28;20839;-62
2023/03/20 10:09:22;;;;;;;12.10;5.90;;;9.70;1.00;;;;;;5040466;28;20455;-62
2023/03/20 10:12:10;;;;;;;10.48;5.13;;;9.70;29.70;;;;;;5041003;28;20415;-62
2023/03/20 10:14:49;;;;;;;12.05;6.15;;;9.70;1.00;;;;;;5031420;28;20414;-62
2023/03/20 10:17:26;;;;;;;7.95;5.25;;;9.60;91.80;;;;;;5041611;28;20415;-62
2023/03/20 10:19:58;;;;;;;8.85;5.57;;;9.50;1.00;;;;;;5041013;28;20925;-62
2023/03/20 10:22:28;;;;;;;11.00;5.35;;;9.70;39.70;;;;;;5039876;28;20430;-62
2023/03/20 10:25:06;;;;;;;8.23;4.53;;;9.60;1.00;;;;;;5050314;28;20955;-62
2023/03/20 10:27:37;;;;;;;8.18;4.32;;;9.30;1.00;;;;;;5044728;28;21056;-62
2023/03/20 10:30:22;;;;;;;9.53;4.17;;;9.00;1.00;;;;;;5039764;28;20905;-62
2023/03/20 10:32:57;;;;;;;10.88;4.30;;;9.20;91.60;;;;;;5039689;28;20469;-62
2023/03/20 10:35:31;;;;;;;8.45;4.10;;;9.30;1.00;;;;;;5040367;28;20422;-62
2023/03/20 10:38:12;;;;;;;7.50;3.70;;;9.60;1.00;;;;;;5040363;28;20407;-62
2023/03/20 10:40:42;;;;;;;7.82;3.40;;;9.60;99.90;;;;;;5040276;28;20481;-62
2023/03/20 10:43:16;;;;;;;6.13;2.70;;;9.80;99.90;;;;;;5039765;28;20431;-62
2023/03/20 10:45:46;;;;;;;5.80;2.70;;;9.80;1.00;;;;;;5040673;28;20407;-62
2023/03/20 10:48:25;;;;;;;7.95;2.80;;;10.00;1.00;;;;;;5039575;28;20959;-62
2023/03/20 10:50:56;;;;;;;5.60;2.53;;;10.00;99.90;;;;;;5039907;28;20425;-62
2023/03/20 10:53:32;;;;;;;6.93;2.50;;;10.30;99.90;;;;;;5037958;28;20439;-62
2023/03/20 10:56:04;;;;;;;5.77;2.43;;;10.20;99.90;;;;;;5050197;28;20481;-62
2023/03/20 10:58:35;;;;;;;4.82;2.28;;;10.00;99.90;;;;;;5041818;28;20409;-62
2023/03/20 11:01:02;;;;;;;7.47;2.65;;;10.10;99.90;;;;;;5039797;28;20407;-62
2023/03/20 11:03:31;;;;;;;4.82;2.60;;;10.20;99.90;;;;;;5039931;28;20431;-62
2023/03/20 11:06:01;;;;;;;6.77;3.00;;;10.20;99.30;;;;;;5041999;28;20508;-62
2023/03/20 11:08:34;;;;;;;7.43;2.80;;;10.20;99.90;;;;;;5041564;28;20466;-62
2023/03/20 11:11:03;;;;;;;6.78;2.70;;;10.30;40.50;;;;;;5040294;28;20501;-62
2023/03/20 11:13:33;;;;;;;6.65;2.70;;;10.20;85.10;;;;;;5038917;28;20476;-62
2023/03/20 11:16:11;;;;;;;5.88;2.65;;;10.20;99.90;;;;;;5039612;28;20411;-62
2023/03/20 11:18:40;;;;;;;7.72;3.25;;;10.20;7.20;;;;;;5039406;28;20423;-62
2023/03/20 11:21:13;;;;;;;7.53;3.35;;;10.10;15.60;;;;;;5041535;28;20418;-62
2023/03/20 11:23:40;;;;;;;6.40;3.03;;;10.30;1.00;;;;;;5040729;28;20431;-62
2023/03/20 11:26:13;;;;;;;7.68;3.03;;;10.50;7.90;;;;;;5044506;28;20857;-62
2023/03/20 11:28:42;;;;;;;6.28;2.90;;;10.60;55.50;;;;;;5039697;28;20427;-62
2023/03/20 11:31:18;;;;;;;6.47;2.78;;;10.60;4.10;;;;;;5039990;28;20423;-61
2023/03/20 11:33:46;;;;;;;5.70;2.85;;;10.50;1.00;;;;;;5030467;28;20494;-62
2023/03/20 11:36:22;;;;;;;4.70;2.53;;;10.40;1.00;;;;;;5030496;28;20414;-62
2023/03/20 11:38:51;;;;;;;6.68;2.88;;;10.10;1.00;;;;;;5030569;28;20423;-62
2023/03/20 11:41:23;;;;;;;7.23;2.73;;;9.80;15.50;;;;;;5034133;28;20469;-62
2023/03/20 11:43:50;;;;;;;6.03;2.75;;;9.80;24.40;;;;;;5033545;28;20907;-62
2023/03/20 11:46:18;;;;;;;7.45;2.95;;;9.90;68.60;;;;;;5038981;28;20415;-62
2023/03/20 11:48:46;;;;;;;6.95;2.90;;;10.10;3.90;;;;;;5040376;28;20422;-62
2023/03/20 11:51:16;;;;;;;8.27;3.00;;;10.30;1.00;;;;;;5041288;28;20965;-62
2023/03/20 11:53:58;;;;;;;7.00;2.90;;;10.40;1.00;;;;;;5045629;28;20415;-62
2023/03/20 11:56:29;;;;;;;7.43;3.38;;;10.50;1.00;;;;;;5046684;28;20784;-62
2023/03/20 11:58:57;;;;;;;8.68;3.15;;;10.30;1.00;;;;;;5041927;28;20421;-61
2023/03/20 12:01:25;;;;;;;7.70;3.40;;;10.40;1.00;;;;;;5040464;28;20758;-61
2023/03/20 12:04:00;;;;;;;6.57;3.10;;;10.40;4.00;;;;;;5038789;28;20462;-61
2023/03/20 12:06:37;;;;;;;7.50;2.72;;;10.20;48.90;;;;;;5040645;28;20469;-61
2023/03/20 12:09:10;;;;;;;7.63;2.80;;;10.20;1.00;;;;;;5040036;28;20411;-61
2023/03/20 12:11:51;;;;;;;7.18;3.00;;;10.30;5.90;;;;;;5038664;28;20958;-61
2023/03/20 12:14:27;;;;;;;6.68;2.58;;;10.30;1.00;;;;;;5038686;28;20462;-61
2023/03/20 12:16:59;;;;;;;8.20;3.00;;;10.30;1.00;;;;;;5039395;28;20411;-61
2023/03/20 12:19:29;;;;;;;7.53;2.88;;;9.80;16.50;;;;;;5039355;28;20469;-62
2023/03/20 12:22:03;;;;;;;5.47;3.05;;;9.60;99.90;;;;;;5038966;28;20425;-61
2023/03/20 12:24:38;;;;;;;6.32;3.00;;;9.80;63.40;;;;;;5046247;28;20451;-62
2023/03/20 12:27:21;;;;;;;7.13;3.13;;;9.50;99.90;;;;;;5049748;28;20502;-62
2023/03/20 12:29:51;;;;;;;6.90;3.07;;;9.40;99.90;;;;;;5044891;28;20553;-61
2023/03/20 12:32:25;;;;;;;7.03;3.03;;;9.60;99.90;;;;;;5044109;28;20479;-62
2023/03/20 12:34:57;;;;;;;7.90;3.70;;;9.70;99.90;;;;;;5042848;28;20419;-62
2023/03/20 12:37:24;;;;;;;7.45;3.78;;;9.90;99.90;;;;;;5042079;28;20419;-62
2023/03/20 12:39:53;;;;;;;9.10;3.67;;;10.00;99.90;;;;;;5044094;28;20474;-62
2023/03/20 12:42:37;;;;;;;8.25;3.53;;;9.80;99.90;;;;;;5044406;28;20421;-62
2023/03/20 12:45:10;;;;;;;6.67;3.57;;;9.70;99.90;;;;;;5033437;28;20411;-62
2023/03/20 12:48:04;;;;;;;8.03;3.57;;;9.40;1.00;;;;;;5042613;28;20449;-62
2023/03/20 12:50:34;;;;;;;6.20;2.95;;;9.60;1.00;;;;;;5031646;28;20431;-62
2023/03/20 12:53:20;;;;;;;6.18;2.92;;;9.50;99.90;;;;;;5035873;28;20446;-62
2023/03/20 12:56:01;;;;;;;6.47;3.20;;;9.50;99.90;;;;;;5052939;28;20412;-62
2023/03/20 12:58:39;;;;;;;9.10;3.38;;;9.40;1.00;;;;;;5033114;28;20473;-62